createdAt,value
2023-05-19T00:00:50.604Z,66.74
2023-05-19T00:01:48.979Z,66.85
2023-05-19T00:02:49.041Z,67.32
2023-05-19T00:03:48.945Z,66.94
2023-05-19T00:04:48.931Z,66.94
2023-05-19T00:05:48.980Z,67.15
2023-05-19T00:06:48.937Z,66.74
2023-05-19T00:07:48.929Z,66.64
2023-05-19T00:08:48.950Z,66.94
2023-05-19T00:09:48.919Z,66.85
2023-05-19T00:10:48.913Z,67.05
2023-05-19T00:11:48.923Z,66.33
2023-05-19T00:12:48.905Z,66.77
2023-05-19T00:13:48.900Z,67.29
2023-05-19T00:14:48.895Z,66.88
2023-05-19T00:15:48.915Z,66.97
2023-05-19T00:16:48.866Z,67.29
2023-05-19T00:17:48.895Z,67.59
2023-05-19T00:18:49.913Z,66.94
2023-05-19T00:19:49.375Z,66.74
2023-05-19T00:20:48.867Z,67.15
2023-05-19T00:21:48.840Z,66.85
2023-05-19T00:22:48.842Z,66.67
2023-05-19T00:23:48.845Z,66.47
2023-05-19T00:24:48.838Z,65.92
2023-05-19T00:25:48.850Z,66.88
2023-05-19T00:26:48.803Z,67.29
2023-05-19T00:27:48.808Z,67.59
2023-05-19T00:28:48.799Z,67.29
2023-05-19T00:29:48.831Z,67.08
2023-05-19T00:30:48.802Z,67.08
2023-05-19T00:31:48.830Z,67.15
2023-05-19T00:32:48.826Z,67.29
2023-05-19T00:33:48.781Z,66.77
2023-05-19T00:34:48.783Z,66.77
2023-05-19T00:35:48.759Z,66.67
2023-05-19T00:36:48.745Z,65.86
2023-05-19T00:37:48.786Z,66.97
2023-05-19T00:38:48.745Z,67.59
2023-05-19T00:39:48.731Z,67.29
2023-05-19T00:40:48.747Z,67.08
2023-05-19T00:41:48.742Z,66.88
2023-05-19T00:42:48.768Z,67.69
2023-05-19T00:43:48.749Z,67.52
2023-05-19T00:44:48.728Z,67.52
2023-05-19T00:45:48.717Z,67.52
2023-05-19T00:46:48.751Z,67.82
2023-05-19T00:47:48.779Z,67.52
2023-05-19T00:48:48.710Z,67.85
2023-05-19T00:49:48.694Z,68.47
2023-05-19T00:50:48.691Z,68.77
2023-05-19T00:51:48.691Z,68.37
2023-05-19T00:52:48.662Z,68.77
2023-05-19T00:53:48.670Z,68.60
2023-05-19T00:54:48.659Z,68.88
2023-05-19T00:55:48.675Z,68.77
2023-05-19T00:56:48.630Z,68.70
2023-05-19T00:57:48.633Z,68.60
2023-05-19T00:58:48.629Z,68.70
2023-05-19T00:59:48.621Z,69.38
2023-05-19T01:00:48.648Z,68.50
2023-05-19T01:01:48.600Z,68.50
2023-05-19T01:02:48.720Z,69.01
2023-05-19T01:03:48.780Z,69.73
2023-05-19T01:04:48.606Z,68.91
2023-05-19T01:05:48.636Z,69.45
2023-05-19T01:06:48.669Z,69.42
2023-05-19T01:07:48.567Z,69.01
2023-05-19T01:08:48.578Z,68.80
2023-05-19T01:09:48.576Z,69.01
2023-05-19T01:10:48.550Z,68.70
2023-05-19T01:11:48.550Z,69.01
2023-05-19T01:12:48.557Z,69.52
2023-05-19T01:13:48.973Z,69.42
2023-05-19T01:14:49.396Z,69.04
2023-05-19T01:15:48.556Z,69.21
2023-05-19T01:16:48.712Z,69.24
2023-05-19T01:17:48.570Z,69.24
2023-05-19T01:18:48.551Z,69.24
2023-05-19T01:19:48.540Z,69.35
2023-05-19T01:20:48.510Z,69.24
2023-05-19T01:21:48.498Z,69.24
2023-05-19T01:22:49.408Z,69.04
2023-05-19T01:23:48.488Z,69.24
2023-05-19T01:24:49.392Z,69.89
2023-05-19T01:25:48.556Z,69.86
2023-05-19T01:26:48.462Z,70.00
2023-05-19T01:27:48.485Z,68.94
2023-05-19T01:28:48.458Z,69.38
2023-05-19T01:29:48.530Z,69.69
2023-05-19T01:30:48.451Z,70.47
2023-05-19T01:31:48.525Z,70.20
2023-05-19T01:32:48.529Z,70.40
2023-05-19T01:33:48.428Z,70.00
2023-05-19T01:34:49.405Z,70.17
2023-05-19T01:35:48.492Z,69.86
2023-05-19T01:36:48.417Z,70.00
2023-05-19T01:37:48.414Z,70.20
2023-05-19T01:38:48.410Z,70.61
2023-05-19T01:39:49.390Z,70.30
2023-05-19T01:40:48.437Z,70.00
2023-05-19T01:41:48.373Z,70.40
2023-05-19T01:42:48.370Z,70.51
2023-05-19T01:43:48.392Z,70.00
2023-05-19T01:44:49.378Z,70.30
2023-05-19T01:45:48.482Z,69.79
2023-05-19T01:46:48.342Z,69.72
2023-05-19T01:47:48.378Z,70.10
2023-05-19T01:48:48.319Z,70.30
2023-05-19T01:49:48.356Z,70.20
2023-05-19T01:50:48.341Z,70.54
2023-05-19T01:51:48.302Z,70.13
2023-05-19T01:52:48.326Z,70.54
2023-05-19T01:53:48.298Z,70.40
2023-05-19T01:54:48.962Z,70.20
2023-05-19T01:55:48.440Z,70.71
2023-05-19T01:56:48.274Z,70.40
2023-05-19T01:57:48.258Z,69.79
2023-05-19T01:58:48.266Z,69.59
2023-05-19T01:59:48.332Z,70.30
2023-05-19T02:00:48.292Z,69.69
2023-05-19T02:01:48.301Z,69.89
2023-05-19T02:02:48.246Z,69.93
2023-05-19T02:03:48.282Z,69.69
2023-05-19T02:04:49.039Z,70.51
2023-05-19T02:05:48.277Z,70.51
2023-05-19T02:06:48.209Z,70.30
2023-05-19T02:07:48.212Z,69.79
2023-05-19T02:08:48.213Z,70.00
2023-05-19T02:09:48.264Z,70.13
2023-05-19T02:10:48.189Z,70.03
2023-05-19T02:11:48.184Z,70.20
2023-05-19T02:12:48.172Z,70.34
2023-05-19T02:13:48.181Z,70.54
2023-05-19T02:14:48.179Z,70.95
2023-05-19T02:15:48.200Z,70.43
2023-05-19T02:16:48.381Z,70.20
2023-05-19T02:17:48.322Z,70.03
2023-05-19T02:18:48.175Z,70.13
2023-05-19T02:19:48.267Z,69.82
2023-05-19T02:20:48.133Z,70.13
2023-05-19T02:21:49.153Z,70.26
2023-05-19T02:22:48.138Z,70.23
2023-05-19T02:23:48.108Z,70.23
2023-05-19T02:24:48.153Z,70.03
2023-05-19T02:25:48.105Z,70.43
2023-05-19T02:26:48.091Z,70.43
2023-05-19T02:27:48.107Z,70.54
2023-05-19T02:28:48.101Z,70.54
2023-05-19T02:29:48.074Z,70.64
2023-05-19T02:30:48.054Z,70.98
2023-05-19T02:31:48.144Z,71.08
2023-05-19T02:32:48.165Z,71.08
2023-05-19T02:33:48.050Z,70.98
2023-05-19T02:34:48.045Z,70.88
2023-05-19T02:35:48.046Z,70.57
2023-05-19T02:36:48.045Z,71.19
2023-05-19T02:37:48.086Z,71.80
2023-05-19T02:38:48.028Z,72.00
2023-05-19T02:39:48.040Z,70.98
2023-05-19T02:40:48.008Z,70.98
2023-05-19T02:41:48.002Z,70.88
2023-05-19T02:42:48.020Z,71.39
2023-05-19T02:43:47.973Z,71.94
2023-05-19T02:44:47.986Z,71.42
2023-05-19T02:45:47.986Z,71.62
2023-05-19T02:46:48.030Z,71.53
2023-05-19T02:47:47.998Z,72.24
2023-05-19T02:48:47.970Z,71.83
2023-05-19T02:49:47.989Z,72.38
2023-05-19T02:50:47.947Z,72.17
2023-05-19T02:51:47.945Z,71.97
2023-05-19T02:52:47.927Z,71.97
2023-05-19T02:53:47.931Z,73.13
2023-05-19T02:54:47.949Z,73.13
2023-05-19T02:55:47.938Z,73.30
2023-05-19T02:56:47.929Z,73.20
2023-05-19T02:57:47.944Z,73.54
2023-05-19T02:58:47.928Z,73.74
2023-05-19T02:59:47.895Z,73.54
2023-05-19T03:00:47.929Z,73.74
2023-05-19T03:01:47.922Z,73.54
2023-05-19T03:02:47.987Z,73.54
2023-05-19T03:03:48.011Z,73.85
2023-05-19T03:04:47.868Z,73.44
2023-05-19T03:05:47.884Z,74.05
2023-05-19T03:06:47.850Z,73.95
2023-05-19T03:07:47.851Z,73.74
2023-05-19T03:08:47.832Z,72.92
2023-05-19T03:09:47.836Z,74.05
2023-05-19T03:10:47.817Z,73.98
2023-05-19T03:11:47.833Z,74.49
2023-05-19T03:12:48.855Z,73.74
2023-05-19T03:13:47.836Z,73.95
2023-05-19T03:14:47.820Z,73.44
2023-05-19T03:15:47.853Z,73.74
2023-05-19T03:16:47.889Z,73.64
2023-05-19T03:17:47.842Z,73.95
2023-05-19T03:18:47.898Z,74.70
2023-05-19T03:19:47.846Z,73.95
2023-05-19T03:20:47.775Z,73.64
2023-05-19T03:21:47.768Z,73.54
2023-05-19T03:22:47.744Z,73.44
2023-05-19T03:23:47.759Z,73.78
2023-05-19T03:24:47.738Z,73.71
2023-05-19T03:25:47.729Z,73.88
2023-05-19T03:26:47.786Z,74.12
2023-05-19T03:27:47.760Z,73.98
2023-05-19T03:28:47.737Z,73.91
2023-05-19T03:29:47.725Z,73.88
2023-05-19T03:30:47.704Z,73.88
2023-05-19T03:31:47.700Z,73.68
2023-05-19T03:32:47.866Z,73.85
2023-05-19T03:33:47.728Z,73.78
2023-05-19T03:34:47.904Z,73.68
2023-05-19T03:35:47.663Z,73.74
2023-05-19T03:36:47.692Z,73.95
2023-05-19T03:37:47.696Z,73.40
2023-05-19T03:38:47.660Z,73.03
2023-05-19T03:39:48.341Z,73.40
2023-05-19T03:40:47.642Z,73.64
2023-05-19T03:41:47.665Z,72.82
2023-05-19T03:42:47.747Z,73.13
2023-05-19T03:43:47.649Z,73.64
2023-05-19T03:44:48.387Z,73.85
2023-05-19T03:45:47.647Z,73.64
2023-05-19T03:46:47.607Z,73.64
2023-05-19T03:47:47.670Z,73.23
2023-05-19T03:48:47.611Z,73.64
2023-05-19T03:49:48.382Z,73.64
2023-05-19T03:50:47.606Z,73.64
2023-05-19T03:51:47.588Z,73.64
2023-05-19T03:52:47.573Z,73.44
2023-05-19T03:53:47.556Z,73.95
2023-05-19T03:54:48.285Z,73.54
2023-05-19T03:55:47.557Z,73.64
2023-05-19T03:56:47.541Z,73.54
2023-05-19T03:57:47.579Z,74.15
2023-05-19T03:58:47.550Z,73.78
2023-05-19T03:59:48.328Z,74.29
2023-05-19T04:00:47.511Z,73.47
2023-05-19T04:01:47.548Z,74.19
2023-05-19T04:02:47.559Z,73.68
2023-05-19T04:03:47.572Z,74.15
2023-05-19T04:04:47.668Z,73.44
2023-05-19T04:05:47.602Z,73.98
2023-05-19T04:06:47.509Z,74.15
2023-05-19T04:07:47.484Z,73.44
2023-05-19T04:08:47.488Z,74.15
2023-05-19T04:09:47.585Z,73.33
2023-05-19T04:10:47.469Z,73.23
2023-05-19T04:11:47.472Z,73.85
2023-05-19T04:12:47.441Z,73.23
2023-05-19T04:13:47.443Z,73.61
2023-05-19T04:14:47.467Z,73.23
2023-05-19T04:15:47.492Z,73.85
2023-05-19T04:16:47.431Z,73.10
2023-05-19T04:17:47.427Z,72.99
2023-05-19T04:18:47.543Z,73.44
2023-05-19T04:19:47.412Z,73.61
2023-05-19T04:20:47.409Z,72.07
2023-05-19T04:21:47.387Z,73.30
2023-05-19T04:22:47.376Z,73.74
2023-05-19T04:23:47.402Z,73.03
2023-05-19T04:24:47.408Z,73.74
2023-05-19T04:25:47.359Z,73.13
2023-05-19T04:26:47.389Z,73.64
2023-05-19T04:27:47.362Z,74.15
2023-05-19T04:28:47.461Z,73.85
2023-05-19T04:29:47.373Z,73.64
2023-05-19T04:30:47.365Z,73.61
2023-05-19T04:31:47.363Z,73.10
2023-05-19T04:32:47.331Z,73.40
2023-05-19T04:33:47.317Z,73.71
2023-05-19T04:34:47.313Z,73.20
2023-05-19T04:35:47.302Z,73.40
2023-05-19T04:36:47.310Z,73.10
2023-05-19T04:37:47.341Z,73.16
2023-05-19T04:38:47.898Z,73.78
2023-05-19T04:39:47.261Z,71.94
2023-05-19T04:40:47.293Z,73.30
2023-05-19T04:41:47.278Z,73.71
2023-05-19T04:42:47.238Z,73.16
2023-05-19T04:43:47.296Z,72.65
2023-05-19T04:44:47.247Z,73.06
2023-05-19T04:45:47.248Z,73.27
2023-05-19T04:46:47.267Z,72.48
2023-05-19T04:47:47.281Z,73.06
2023-05-19T04:48:47.222Z,73.71
2023-05-19T04:49:47.216Z,73.64
2023-05-19T04:50:47.211Z,73.61
2023-05-19T04:51:47.217Z,73.40
2023-05-19T04:52:47.200Z,73.61
2023-05-19T04:53:48.188Z,73.16
2023-05-19T04:54:47.214Z,72.96
2023-05-19T04:55:47.169Z,73.33
2023-05-19T04:56:47.179Z,72.92
2023-05-19T04:57:47.174Z,72.11
2023-05-19T04:58:47.169Z,72.96
2023-05-19T04:59:47.172Z,74.15
2023-05-19T05:00:47.172Z,73.98
2023-05-19T05:01:48.202Z,74.90
2023-05-19T05:02:47.243Z,73.85
2023-05-19T05:03:47.173Z,74.11
2023-05-19T05:04:47.130Z,73.47
2023-05-19T05:05:47.119Z,73.33
2023-05-19T05:06:47.150Z,71.80
2023-05-19T05:07:47.118Z,71.77
2023-05-19T05:08:47.122Z,72.07
2023-05-19T05:09:47.118Z,72.07
2023-05-19T05:10:47.099Z,72.04
2023-05-19T05:11:47.081Z,71.63
2023-05-19T05:12:47.064Z,70.68
2023-05-19T05:13:47.077Z,70.57
2023-05-19T05:14:47.080Z,70.17
2023-05-19T05:15:47.075Z,69.93
2023-05-19T05:16:47.137Z,69.52
2023-05-19T05:17:47.110Z,69.35
2023-05-19T05:18:47.118Z,69.56
2023-05-19T05:19:47.059Z,68.94
2023-05-19T05:20:47.040Z,69.38
2023-05-19T05:21:47.061Z,69.56
2023-05-19T05:22:47.020Z,69.56
2023-05-19T05:23:47.002Z,69.24
2023-05-19T05:24:47.350Z,69.04
2023-05-19T05:25:46.984Z,69.18
2023-05-19T05:26:46.994Z,70.47
2023-05-19T05:27:47.002Z,71.80
2023-05-19T05:28:46.974Z,71.66
2023-05-19T05:29:47.005Z,71.42
2023-05-19T05:30:46.962Z,71.12
2023-05-19T05:31:46.981Z,70.81
2023-05-19T05:32:47.010Z,69.76
2023-05-19T05:33:47.058Z,69.32
2023-05-19T05:34:46.947Z,69.01
2023-05-19T05:35:46.993Z,68.74
2023-05-19T05:36:46.956Z,69.11
2023-05-19T05:37:46.939Z,68.47
2023-05-19T05:38:46.914Z,68.91
2023-05-19T05:39:46.912Z,68.77
2023-05-19T05:40:46.940Z,67.99
2023-05-19T05:41:46.905Z,69.21
2023-05-19T05:42:46.892Z,68.67
2023-05-19T05:43:46.922Z,68.67
2023-05-19T05:44:46.885Z,68.70
2023-05-19T05:45:46.901Z,69.21
2023-05-19T05:46:46.898Z,69.04
2023-05-19T05:47:47.002Z,68.84
2023-05-19T05:48:46.864Z,69.21
2023-05-19T05:49:46.888Z,68.80
2023-05-19T05:50:46.901Z,68.70
2023-05-19T05:51:57.965Z,69.11
2023-05-19T05:52:48.893Z,68.88
2023-05-19T05:53:46.866Z,68.37
2023-05-19T05:54:46.830Z,68.67
2023-05-19T05:55:46.879Z,68.40
2023-05-19T05:56:46.831Z,69.35
2023-05-19T05:57:47.397Z,69.73
2023-05-19T05:58:46.865Z,69.38
2023-05-19T05:59:46.788Z,69.11
2023-05-19T06:00:46.792Z,69.01
2023-05-19T06:01:46.831Z,69.52
2023-05-19T06:02:46.875Z,69.62
2023-05-19T06:03:46.908Z,68.67
2023-05-19T06:04:46.768Z,68.84
2023-05-19T06:05:46.815Z,68.33
2023-05-19T06:06:47.839Z,68.95
2023-05-19T06:07:46.799Z,68.51
2023-05-19T06:08:46.742Z,68.30
2023-05-19T06:09:46.775Z,67.59
2023-05-19T06:10:47.546Z,67.66
2023-05-19T06:11:47.844Z,67.79
2023-05-19T06:12:46.719Z,67.83
2023-05-19T06:13:47.487Z,66.71
2023-05-19T06:14:46.770Z,67.43
2023-05-19T06:15:46.763Z,67.52
2023-05-19T06:16:46.754Z,67.12
2023-05-19T06:17:49.616Z,66.99
2023-05-19T06:18:46.766Z,66.78
2023-05-19T06:19:46.704Z,65.73
2023-05-19T06:20:46.695Z,65.86
2023-05-19T06:21:46.670Z,66.07
2023-05-19T06:22:46.694Z,66.65
2023-05-19T06:23:46.717Z,65.77
2023-05-19T06:24:46.657Z,66.99
2023-05-19T06:25:46.649Z,66.24
2023-05-19T06:26:46.684Z,66.65
2023-05-19T06:27:46.652Z,66.44
2023-05-19T06:28:46.657Z,65.77
2023-05-19T06:29:46.641Z,64.04
2023-05-19T06:30:46.652Z,64.48
2023-05-19T06:31:46.691Z,64.28
2023-05-19T06:32:46.651Z,63.87
2023-05-19T06:33:46.614Z,64.07
2023-05-19T06:34:46.648Z,63.74
2023-05-19T06:35:46.677Z,64.01
2023-05-19T06:36:46.627Z,63.78
2023-05-19T06:37:46.584Z,62.33
2023-05-19T06:38:46.612Z,61.39
2023-05-19T06:39:46.615Z,61.93
2023-05-19T06:40:46.618Z,61.39
2023-05-19T06:41:46.581Z,60.68
2023-05-19T06:42:47.393Z,60.58
2023-05-19T06:43:46.527Z,60.91
2023-05-19T06:44:46.535Z,59.97
2023-05-19T06:45:46.566Z,60.83
2023-05-19T06:46:46.614Z,61.11
2023-05-19T06:47:46.532Z,60.71
2023-05-19T06:48:47.493Z,61.21
2023-05-19T06:49:46.501Z,60.78
2023-05-19T06:50:46.497Z,60.91
2023-05-19T06:51:46.505Z,61.29
2023-05-19T06:52:46.486Z,59.84
2023-05-19T06:53:46.479Z,60.07
2023-05-19T06:54:46.472Z,59.56
2023-05-19T06:55:57.911Z,60.47
2023-05-19T06:56:48.465Z,59.23
2023-05-19T06:57:46.554Z,58.80
2023-05-19T06:58:46.455Z,59.50
2023-05-19T06:59:46.448Z,60.04
2023-05-19T07:00:46.477Z,59.43
2023-05-19T07:01:46.478Z,59.23
2023-05-19T07:02:46.580Z,59.53
2023-05-19T07:03:46.525Z,60.14
2023-05-19T07:04:46.426Z,60.35
2023-05-19T07:05:46.398Z,60.37
2023-05-19T07:06:46.374Z,59.53
2023-05-19T07:07:46.466Z,60.65
2023-05-19T07:08:46.451Z,60.01
2023-05-19T07:09:46.363Z,60.08
2023-05-19T07:10:46.391Z,59.53
2023-05-19T07:11:46.412Z,60.11
2023-05-19T07:12:46.351Z,59.38
2023-05-19T07:13:46.383Z,58.87
2023-05-19T07:14:46.350Z,58.64
2023-05-19T07:15:47.383Z,58.94
2023-05-19T07:16:46.658Z,58.23
2023-05-19T07:17:46.358Z,57.24
2023-05-19T07:18:46.352Z,55.04
2023-05-19T07:19:46.394Z,52.72
2023-05-19T07:20:46.392Z,51.56
2023-05-19T07:21:46.376Z,49.15
2023-05-19T07:22:46.508Z,48.32
2023-05-19T07:23:46.274Z,47.58
2023-05-19T07:24:46.304Z,46.62
2023-05-19T07:25:46.269Z,45.53
2023-05-19T07:26:46.286Z,45.60
2023-05-19T07:27:46.233Z,44.34
2023-05-19T07:28:46.645Z,42.71
2023-05-19T07:29:46.257Z,43.43
2023-05-19T07:30:46.243Z,43.82
2023-05-19T07:31:46.327Z,46.92
2023-05-19T07:32:46.289Z,47.34
2023-05-19T07:33:46.248Z,47.60
2023-05-19T07:34:46.196Z,46.85
2023-05-19T07:35:46.214Z,46.41
2023-05-19T07:36:46.218Z,44.76
2023-05-19T07:37:46.193Z,43.84
2023-05-19T07:38:46.251Z,42.68
2023-05-19T07:39:46.234Z,40.48
2023-05-19T07:40:46.256Z,41.60
2023-05-19T07:41:46.215Z,43.33
2023-05-19T07:42:46.197Z,43.43
2023-05-19T07:43:46.160Z,43.18
2023-05-19T07:44:46.153Z,42.85
2023-05-19T07:45:46.176Z,40.18
2023-05-19T07:46:47.266Z,40.36
2023-05-19T07:47:46.174Z,40.01
2023-05-19T07:48:46.123Z,43.01
2023-05-19T07:49:46.162Z,43.13
2023-05-19T07:50:46.135Z,41.96
2023-05-19T07:51:46.215Z,40.34
2023-05-19T07:52:46.108Z,38.69
2023-05-19T07:53:46.099Z,37.71
2023-05-19T07:54:46.091Z,38.65
2023-05-19T07:55:46.204Z,39.26
2023-05-19T07:56:46.100Z,39.56
2023-05-19T07:57:46.173Z,38.86
2023-05-19T07:58:46.137Z,39.06
2023-05-19T07:59:46.264Z,40.67
2023-05-19T08:00:46.107Z,42.83
2023-05-19T08:01:46.042Z,42.83
2023-05-19T08:02:46.178Z,42.71
2023-05-19T08:03:46.192Z,42.68
2023-05-19T08:04:46.056Z,42.29
2023-05-19T08:05:46.027Z,42.54
2023-05-19T08:06:46.001Z,43.60
2023-05-19T08:07:45.998Z,44.80
2023-05-19T08:08:46.044Z,45.45
2023-05-19T08:09:46.024Z,46.07
2023-05-19T08:10:45.965Z,46.95
2023-05-19T08:11:46.029Z,44.92
2023-05-19T08:12:45.957Z,44.62
2023-05-19T08:13:45.963Z,44.30
2023-05-19T08:14:45.954Z,44.08
2023-05-19T08:15:45.975Z,44.50
2023-05-19T08:16:45.970Z,44.38
2023-05-19T08:17:45.999Z,44.82
2023-05-19T08:18:46.012Z,44.40
2023-05-19T08:19:45.961Z,42.71
2023-05-19T08:20:46.000Z,40.44
2023-05-19T08:21:45.947Z,41.22
2023-05-19T08:22:45.933Z,40.04
2023-05-19T08:23:45.922Z,40.13
2023-05-19T08:24:45.952Z,42.85
2023-05-19T08:25:46.025Z,43.01
2023-05-19T08:26:45.951Z,41.25
2023-05-19T08:27:45.928Z,38.90
2023-05-19T08:28:45.867Z,38.70
2023-05-19T08:29:45.885Z,37.53
2023-05-19T08:30:45.974Z,36.32
2023-05-19T08:31:46.008Z,36.49
2023-05-19T08:32:45.918Z,39.78
2023-05-19T08:33:45.951Z,39.65
2023-05-19T08:34:45.890Z,38.59
2023-05-19T08:35:45.912Z,37.35
2023-05-19T08:36:45.921Z,38.40
2023-05-19T08:37:45.863Z,37.04
2023-05-19T08:38:46.090Z,36.08
2023-05-19T08:39:45.852Z,35.26
2023-05-19T08:40:45.859Z,35.64
2023-05-19T08:41:45.906Z,34.53
2023-05-19T08:42:45.875Z,34.53
2023-05-19T08:43:45.791Z,35.54
2023-05-19T08:44:45.794Z,34.68
2023-05-19T08:45:45.784Z,35.08
2023-05-19T08:46:45.843Z,34.36
2023-05-19T08:47:45.803Z,34.27
2023-05-19T08:48:45.777Z,34.03
2023-05-19T08:49:45.762Z,33.72
2023-05-19T08:50:45.764Z,34.01
2023-05-19T08:51:45.756Z,33.22
2023-05-19T08:52:49.495Z,32.09
2023-05-19T08:53:46.741Z,32.04
2023-05-19T08:54:45.724Z,30.94
2023-05-19T08:55:45.706Z,30.82
2023-05-19T08:56:45.809Z,31.08
2023-05-19T08:57:45.729Z,31.54
2023-05-19T08:58:45.692Z,30.83
2023-05-19T08:59:45.716Z,30.52
2023-05-19T09:00:45.697Z,30.47
2023-05-19T09:01:46.534Z,31.07
2023-05-19T09:02:55.172Z,31.08
2023-05-19T09:03:47.684Z,32.67
2023-05-19T09:04:45.742Z,31.57
2023-05-19T09:05:45.687Z,31.99
2023-05-19T09:06:45.625Z,33.62
2023-05-19T09:07:46.456Z,33.64
2023-05-19T09:08:45.590Z,33.54
2023-05-19T09:09:45.654Z,32.82
2023-05-19T09:10:45.622Z,32.42
2023-05-19T09:11:46.492Z,33.95
2023-05-19T09:12:45.583Z,34.98
2023-05-19T09:13:45.611Z,34.58
2023-05-19T09:14:45.568Z,34.80
2023-05-19T09:15:45.689Z,35.52
2023-05-19T09:16:45.615Z,36.11
2023-05-19T09:17:45.609Z,38.46
2023-05-19T09:18:45.613Z,38.57
2023-05-19T09:19:45.573Z,38.26
2023-05-19T09:20:45.564Z,38.60
2023-05-19T09:21:45.703Z,37.13
2023-05-19T09:22:45.565Z,36.49
2023-05-19T09:23:45.566Z,36.52
2023-05-19T09:24:45.522Z,37.21
2023-05-19T09:25:45.510Z,37.83
2023-05-19T09:26:45.530Z,36.78
2023-05-19T09:27:45.512Z,36.42
2023-05-19T09:28:45.510Z,36.52
2023-05-19T09:29:45.556Z,36.52
2023-05-19T09:30:45.524Z,37.75
2023-05-19T09:31:45.649Z,37.04
2023-05-19T09:32:45.523Z,38.37
2023-05-19T09:33:46.081Z,38.29
2023-05-19T09:34:46.499Z,36.07
2023-05-19T09:35:45.494Z,34.74
2023-05-19T09:36:45.485Z,35.74
2023-05-19T09:37:45.470Z,34.08
2023-05-19T09:38:45.454Z,34.25
2023-05-19T09:39:45.450Z,33.78
2023-05-19T09:40:45.414Z,35.03
2023-05-19T09:41:45.494Z,35.97
2023-05-19T09:42:45.409Z,35.95
2023-05-19T09:43:45.403Z,36.47
2023-05-19T09:44:45.497Z,37.02
2023-05-19T09:45:45.443Z,38.09
2023-05-19T09:46:45.436Z,38.96
2023-05-19T09:47:45.412Z,39.66
2023-05-19T09:48:45.408Z,39.36
2023-05-19T09:49:45.387Z,39.58
2023-05-19T09:50:45.361Z,39.34
2023-05-19T09:51:45.357Z,39.06
2023-05-19T09:52:45.369Z,39.31
2023-05-19T09:53:45.349Z,38.47
2023-05-19T09:54:45.376Z,38.63
2023-05-19T09:55:45.330Z,38.65
2023-05-19T09:56:45.384Z,36.90
2023-05-19T09:57:45.375Z,36.57
2023-05-19T09:58:45.572Z,38.37
2023-05-19T09:59:45.320Z,39.58
2023-05-19T10:00:45.386Z,39.10
2023-05-19T10:01:45.357Z,41.27
2023-05-19T10:02:45.467Z,41.38
2023-05-19T10:03:45.309Z,43.01
2023-05-19T10:04:45.879Z,42.79
2023-05-19T10:05:45.293Z,43.07
2023-05-19T10:06:45.522Z,43.05
2023-05-19T10:07:46.040Z,39.53
2023-05-19T10:08:45.270Z,37.04
2023-05-19T10:09:45.278Z,35.22
2023-05-19T10:10:45.265Z,34.48
2023-05-19T10:11:45.584Z,35.29
2023-05-19T10:12:45.241Z,36.14
2023-05-19T10:13:45.260Z,37.05
2023-05-19T10:14:45.245Z,38.13
2023-05-19T10:15:57.024Z,37.83
2023-05-19T10:16:47.251Z,38.15
2023-05-19T10:17:45.273Z,38.56
2023-05-19T10:18:45.219Z,38.39
2023-05-19T10:19:45.204Z,38.62
2023-05-19T10:20:45.196Z,39.34
2023-05-19T10:21:45.172Z,39.74
2023-05-19T10:22:45.990Z,37.32
2023-05-19T10:23:45.172Z,34.53
2023-05-19T10:24:45.305Z,33.01
2023-05-19T10:25:45.168Z,34.78
2023-05-19T10:26:45.152Z,36.10
2023-05-19T10:27:45.137Z,35.77
2023-05-19T10:28:45.166Z,35.01
2023-05-19T10:29:45.152Z,34.94
2023-05-19T10:30:45.104Z,35.14
2023-05-19T10:31:45.166Z,34.74
2023-05-19T10:32:45.224Z,34.94
2023-05-19T10:33:45.122Z,34.89
2023-05-19T10:34:45.154Z,36.35
2023-05-19T10:35:46.055Z,36.21
2023-05-19T10:36:46.190Z,36.14
2023-05-19T10:37:45.085Z,36.44
2023-05-19T10:38:46.190Z,36.34
2023-05-19T10:39:45.500Z,36.12
2023-05-19T10:40:45.059Z,35.19
2023-05-19T10:41:45.723Z,34.31
2023-05-19T10:42:45.154Z,33.90
2023-05-19T10:43:46.379Z,35.44
2023-05-19T10:44:45.077Z,34.43
2023-05-19T10:45:45.031Z,35.31
2023-05-19T10:46:45.091Z,34.45
2023-05-19T10:47:45.976Z,34.89
2023-05-19T10:48:45.007Z,36.87
2023-05-19T10:49:45.033Z,38.92
2023-05-19T10:50:45.000Z,38.96
2023-05-19T10:51:44.997Z,35.08
2023-05-19T10:52:45.011Z,34.76
2023-05-19T10:53:44.980Z,33.29
2023-05-19T10:54:44.981Z,33.67
2023-05-19T10:55:44.962Z,32.19
2023-05-19T10:56:44.951Z,31.82
2023-05-19T10:57:45.490Z,29.41
2023-05-19T10:58:44.974Z,29.23
2023-05-19T10:59:45.009Z,28.68
2023-05-19T11:00:45.154Z,29.14
2023-05-19T11:01:45.015Z,28.22
2023-05-19T11:02:44.955Z,29.13
2023-05-19T11:03:44.937Z,29.19
2023-05-19T11:04:45.003Z,31.87
2023-05-19T11:05:44.900Z,33.04
2023-05-19T11:06:44.935Z,34.80
2023-05-19T11:07:44.951Z,35.13
2023-05-19T11:08:44.947Z,37.13
2023-05-19T11:09:45.522Z,38.05
2023-05-19T11:10:44.911Z,36.25
2023-05-19T11:11:44.918Z,33.40
2023-05-19T11:12:44.879Z,34.55
2023-05-19T11:13:44.859Z,35.11
2023-05-19T11:14:45.052Z,37.04
2023-05-19T11:15:44.851Z,36.83
2023-05-19T11:16:44.910Z,35.26
2023-05-19T11:17:44.856Z,35.10
2023-05-19T11:18:44.935Z,36.25
2023-05-19T11:19:44.864Z,35.96
2023-05-19T11:20:44.828Z,35.10
2023-05-19T11:21:44.816Z,35.44
2023-05-19T11:22:44.840Z,37.05
2023-05-19T11:23:44.836Z,34.08
2023-05-19T11:24:44.883Z,34.76
2023-05-19T11:25:44.869Z,34.41
2023-05-19T11:26:45.341Z,32.88
2023-05-19T11:27:44.846Z,32.37
2023-05-19T11:28:44.786Z,31.05
2023-05-19T11:29:47.588Z,32.42
2023-05-19T11:30:44.896Z,34.33
2023-05-19T11:31:44.836Z,34.48
2023-05-19T11:32:44.778Z,35.66
2023-05-19T11:33:44.736Z,34.69
2023-05-19T11:34:44.760Z,33.67
2023-05-19T11:35:44.728Z,32.91
2023-05-19T11:36:44.749Z,33.73
2023-05-19T11:37:44.711Z,33.21
2023-05-19T11:38:44.695Z,34.97
2023-05-19T11:39:44.685Z,32.93
2023-05-19T11:40:44.675Z,32.96
2023-05-19T11:41:44.727Z,31.65
2023-05-19T11:42:44.688Z,31.62
2023-05-19T11:43:44.664Z,30.88
2023-05-19T11:44:44.742Z,30.63
2023-05-19T11:45:44.700Z,31.90
2023-05-19T11:46:44.679Z,34.25
2023-05-19T11:48:00.232Z,33.29
2023-05-19T11:48:46.690Z,31.74
2023-05-19T11:49:44.657Z,32.25
2023-05-19T11:50:44.620Z,32.17
2023-05-19T11:51:44.634Z,32.25
2023-05-19T11:52:44.618Z,32.65
2023-05-19T11:53:44.627Z,32.93
2023-05-19T11:54:44.638Z,30.99
2023-05-19T11:55:44.617Z,32.42
2023-05-19T11:56:44.586Z,31.82
2023-05-19T11:57:56.005Z,33.49
2023-05-19T11:58:45.625Z,31.12
2023-05-19T11:59:44.562Z,30.43
2023-05-19T12:00:44.611Z,30.44
2023-05-19T12:01:44.610Z,32.10
2023-05-19T12:02:46.577Z,33.33
2023-05-19T12:03:45.935Z,31.88
2023-05-19T12:04:46.826Z,31.22
2023-05-19T12:05:45.930Z,32.21
2023-05-19T12:06:47.938Z,31.53
2023-05-19T12:07:51.805Z,31.90
2023-05-19T12:08:47.191Z,32.53
2023-05-19T12:09:45.803Z,33.45
2023-05-19T12:10:47.081Z,33.34
2023-05-19T12:11:47.731Z,33.73
2023-05-19T12:12:46.682Z,35.06
2023-05-19T12:13:45.492Z,34.13
2023-05-19T12:14:46.319Z,33.07
2023-05-19T12:15:55.706Z,34.06
2023-05-19T12:16:44.585Z,33.73
2023-05-19T12:17:45.476Z,33.01
2023-05-19T12:18:44.529Z,32.88
2023-05-19T12:19:44.483Z,31.87
2023-05-19T12:20:44.479Z,33.01
2023-05-19T12:21:44.452Z,32.76
2023-05-19T12:22:44.441Z,31.76
2023-05-19T12:23:44.439Z,33.29
2023-05-19T12:24:44.533Z,34.45
2023-05-19T12:25:44.452Z,33.45
2023-05-19T12:26:44.459Z,34.98
2023-05-19T12:27:44.469Z,36.12
2023-05-19T12:28:45.409Z,36.74
2023-05-19T12:29:44.401Z,36.44
2023-05-19T12:30:44.415Z,36.54
2023-05-19T12:31:44.415Z,36.46
2023-05-19T12:32:44.382Z,36.14
2023-05-19T12:33:44.992Z,35.19
2023-05-19T12:34:44.380Z,33.57
2023-05-19T12:35:44.381Z,34.56
2023-05-19T12:36:44.350Z,34.17
2023-05-19T12:37:44.406Z,34.78
2023-05-19T12:38:44.358Z,34.58
2023-05-19T12:39:44.398Z,34.68
2023-05-19T12:40:44.324Z,35.44
2023-05-19T12:41:44.319Z,35.75
2023-05-19T12:42:44.311Z,36.77
2023-05-19T12:43:44.329Z,36.97
2023-05-19T12:44:44.299Z,37.49
2023-05-19T12:45:44.316Z,37.08
2023-05-19T12:46:44.309Z,37.65
2023-05-19T12:47:44.411Z,36.87
2023-05-19T12:48:44.297Z,38.39
2023-05-19T12:49:44.330Z,39.10
2023-05-19T12:50:45.484Z,38.64
2023-05-19T12:51:44.299Z,38.28
2023-05-19T12:52:44.262Z,39.36